createdAt,value
2019-02-17T00:02:03.889Z,100276.66
2019-02-17T00:04:32.304Z,100273.12
2019-02-17T00:07:00.691Z,100277.97
2019-02-17T00:09:32.108Z,100277.03
2019-02-17T00:12:00.487Z,100271.32
2019-02-17T00:14:28.836Z,100272.02
2019-02-17T00:16:57.191Z,100273.23
2019-02-17T00:19:25.643Z,100272.02
2019-02-17T00:21:53.995Z,100273.41
2019-02-17T00:24:22.380Z,100262.28
2019-02-17T00:26:50.802Z,100261.75
2019-02-17T00:29:19.258Z,100259.17
2019-02-17T00:31:47.615Z,100258.82
2019-02-17T00:34:16.065Z,100252.75
2019-02-17T00:36:44.412Z,100249.34
2019-02-17T00:39:12.792Z,100247.71
2019-02-17T00:41:41.148Z,100256.66
2019-02-17T00:44:09.949Z,100252.02
2019-02-17T00:46:38.577Z,100251.59
2019-02-17T00:49:06.938Z,100252.05
2019-02-17T00:51:35.816Z,100246.68
2019-02-17T00:54:04.198Z,100250.23
2019-02-17T00:56:32.556Z,100241.28
2019-02-17T00:59:09.823Z,100245.59
2019-02-17T01:01:31.026Z,100240.91
2019-02-17T01:03:59.414Z,100242.12
2019-02-17T01:06:27.767Z,100243.41
2019-02-17T01:08:56.153Z,100245.14
2019-02-17T01:11:24.501Z,100243.83
2019-02-17T01:13:52.895Z,100243.92
2019-02-17T01:16:21.252Z,100237.53
2019-02-17T01:18:49.634Z,100238.75
2019-02-17T01:21:17.984Z,100242.10
2019-02-17T01:23:46.367Z,100242.99
2019-02-17T01:26:14.715Z,100239.15
2019-02-17T01:28:43.102Z,100236.18
2019-02-17T01:31:11.463Z,100234.09
2019-02-17T01:33:39.854Z,100231.85
2019-02-17T01:36:08.208Z,100238.75
2019-02-17T01:38:36.607Z,100238.30
2019-02-17T01:41:05.025Z,100241.44
2019-02-17T01:43:33.383Z,100234.14
2019-02-17T01:46:01.840Z,100229.79
2019-02-17T01:48:30.198Z,100231.02
2019-02-17T01:50:58.585Z,100231.46
2019-02-17T01:53:26.941Z,100232.33
2019-02-17T01:55:55.328Z,100232.81
2019-02-17T01:58:23.691Z,100221.59
2019-02-17T02:00:52.073Z,100227.59
2019-02-17T02:03:20.439Z,100224.55
2019-02-17T02:05:48.891Z,100230.11
2019-02-17T02:08:17.240Z,100217.28
2019-02-17T02:10:45.635Z,100222.89
2019-02-17T02:13:14.177Z,100219.86
2019-02-17T02:15:42.567Z,100213.92
2019-02-17T02:18:10.920Z,100225.12
2019-02-17T02:20:39.379Z,100216.97
2019-02-17T02:23:07.734Z,100226.81
2019-02-17T02:25:36.121Z,100226.81
2019-02-17T02:28:04.479Z,100224.63
2019-02-17T02:30:32.870Z,100223.34
2019-02-17T02:33:01.232Z,100228.94
2019-02-17T02:35:29.678Z,100225.08
2019-02-17T02:37:58.030Z,100226.38
2019-02-17T02:40:26.411Z,100224.27
2019-02-17T02:42:54.774Z,100232.00
2019-02-17T02:45:23.124Z,100220.77
2019-02-17T02:47:51.512Z,100226.30
2019-02-17T02:50:19.873Z,100220.31
2019-02-17T02:52:48.260Z,100212.63
2019-02-17T02:55:16.685Z,100216.05
2019-02-17T02:57:45.086Z,100212.58
2019-02-17T03:00:14.072Z,100220.31
2019-02-17T03:02:42.460Z,100206.97
2019-02-17T03:05:10.891Z,100218.13
2019-02-17T03:07:39.349Z,100215.55
2019-02-17T03:10:09.146Z,100211.78
2019-02-17T03:12:37.540Z,100210.45
2019-02-17T03:15:07.935Z,100203.59
2019-02-17T03:17:36.327Z,100201.86
2019-02-17T03:20:07.124Z,100201.94
2019-02-17T03:22:35.586Z,100201.49
2019-02-17T03:25:04.774Z,100198.48
2019-02-17T03:27:33.161Z,100201.42
2019-02-17T03:30:04.987Z,100198.39
2019-02-17T03:32:31.632Z,100203.99
2019-02-17T03:34:59.994Z,100201.08
2019-02-17T03:37:28.750Z,100203.67
2019-02-17T03:39:57.113Z,100205.81
2019-02-17T03:42:25.570Z,100202.38
2019-02-17T03:44:53.928Z,100202.38
2019-02-17T03:47:22.313Z,100202.38
2019-02-17T03:49:50.670Z,100205.80
2019-02-17T03:52:19.074Z,100197.59
2019-02-17T03:54:47.517Z,100192.06
2019-02-17T03:57:15.880Z,100193.35
2019-02-17T03:59:44.242Z,100190.75
2019-02-17T04:02:12.662Z,100190.30
2019-02-17T04:04:41.333Z,100184.73
2019-02-17T04:07:09.751Z,100191.55
2019-02-17T04:09:38.236Z,100189.45
2019-02-17T04:12:06.595Z,100195.05
2019-02-17T04:14:35.054Z,100190.34
2019-02-17T04:17:03.519Z,100193.77
2019-02-17T04:19:31.891Z,100197.22
2019-02-17T04:22:00.319Z,100198.52
2019-02-17T04:24:28.848Z,100184.76
2019-02-17T04:26:57.209Z,100193.36
2019-02-17T04:29:25.598Z,100200.21
2019-02-17T04:31:53.952Z,100182.16
2019-02-17T04:34:22.342Z,100195.91
2019-02-17T04:36:50.703Z,100178.32
2019-02-17T04:39:19.090Z,100178.32
2019-02-17T04:41:47.445Z,100192.47
2019-02-17T04:44:15.830Z,100180.90
2019-02-17T04:46:44.189Z,100190.34
2019-02-17T04:49:12.578Z,100177.88
2019-02-17T04:51:40.939Z,100188.21
2019-02-17T04:54:09.329Z,100178.31
2019-02-17T04:56:37.680Z,100182.19
2019-02-17T04:59:06.072Z,100186.91
2019-02-17T05:01:34.430Z,100178.73
2019-02-17T05:04:02.796Z,100182.16
2019-02-17T05:06:31.169Z,100182.16
2019-02-17T05:08:59.527Z,100174.89
2019-02-17T05:11:27.914Z,100177.91
2019-02-17T05:13:56.276Z,100177.91
2019-02-17T05:16:24.663Z,100168.45
2019-02-17T05:18:53.092Z,100168.45
2019-02-17T05:21:21.479Z,100175.30
2019-02-17T05:23:49.843Z,100171.02
2019-02-17T05:26:18.232Z,100161.13
2019-02-17T05:28:46.588Z,100166.30
2019-02-17T05:31:14.976Z,100163.30
2019-02-17T05:33:43.329Z,100163.30
2019-02-17T05:36:11.714Z,100152.54
2019-02-17T05:38:40.068Z,100158.99
2019-02-17T05:41:08.459Z,100155.58
2019-02-17T05:43:36.826Z,100157.29
2019-02-17T05:46:05.815Z,100144.83
2019-02-17T05:48:34.623Z,100144.83
2019-02-17T05:51:03.009Z,100156.84
2019-02-17T05:53:31.373Z,100153.84
2019-02-17T05:55:59.764Z,100152.55
2019-02-17T05:58:28.112Z,100152.55
2019-02-17T06:01:03.999Z,100157.27
2019-02-17T06:03:26.587Z,100151.66
2019-02-17T06:05:54.979Z,100148.25
2019-02-17T06:08:23.334Z,100148.25
2019-02-17T06:10:51.722Z,100147.83
2019-02-17T06:13:20.077Z,100154.67
2019-02-17T06:15:48.469Z,100159.87
2019-02-17T06:18:16.830Z,100157.62
2019-02-17T06:20:45.373Z,100155.91
2019-02-17T06:23:13.729Z,100158.55
2019-02-17T06:25:42.195Z,100163.25
2019-02-17T06:28:10.551Z,100154.25
2019-02-17T06:30:38.941Z,100153.83
2019-02-17T06:33:07.296Z,100156.86
2019-02-17T06:35:35.679Z,100162.02
2019-02-17T06:38:04.037Z,100161.56
2019-02-17T06:40:32.429Z,100161.56
2019-02-17T06:43:00.788Z,100162.44
2019-02-17T06:45:29.142Z,100162.44
2019-02-17T06:47:57.536Z,100171.45
2019-02-17T06:50:25.891Z,100158.97
2019-02-17T06:52:54.282Z,100158.97
2019-02-17T06:55:24.282Z,100167.98
2019-02-17T06:57:52.682Z,100167.16
2019-02-17T07:00:25.545Z,100169.73
2019-02-17T07:02:53.931Z,100172.30
2019-02-17T07:05:26.917Z,100172.31
2019-02-17T07:07:55.294Z,100173.17
2019-02-17T07:10:23.649Z,100171.88
2019-02-17T07:12:52.037Z,100171.88
2019-02-17T07:15:20.463Z,100168.44
2019-02-17T07:17:48.846Z,100174.91
2019-02-17T07:20:17.209Z,100171.44
2019-02-17T07:22:46.012Z,100179.58
2019-02-17T07:25:16.927Z,100175.28
2019-02-17T07:27:45.696Z,100172.75
2019-02-17T07:30:16.513Z,100172.75
2019-02-17T07:32:45.781Z,100180.88
2019-02-17T07:35:15.485Z,100177.88
2019-02-17T07:37:44.358Z,100180.44
2019-02-17T07:40:14.680Z,100176.56
2019-02-17T07:42:44.168Z,100183.41
2019-02-17T07:45:13.219Z,100178.65
2019-02-17T07:47:42.344Z,100181.62
2019-02-17T07:50:11.910Z,100179.03
2019-02-17T07:52:40.846Z,100185.02
2019-02-17T07:55:12.832Z,100180.70
2019-02-17T07:57:41.826Z,100169.98
2019-02-17T08:00:12.355Z,100176.28
2019-02-17T08:02:42.118Z,100181.03
2019-02-17T08:05:12.886Z,100181.38
2019-02-17T08:07:41.555Z,100170.98
2019-02-17T08:10:10.718Z,100164.88
2019-02-17T08:12:39.131Z,100167.45
2019-02-17T08:15:11.258Z,100169.52
2019-02-17T08:17:39.917Z,100165.14
2019-02-17T08:20:10.611Z,100166.31
2019-02-17T08:22:39.049Z,100164.53
2019-02-17T08:25:08.873Z,100162.25
2019-02-17T08:27:37.324Z,100159.69
2019-02-17T08:30:08.889Z,100157.91
2019-02-17T08:32:38.329Z,100151.83
2019-02-17T08:35:07.639Z,100155.23
2019-02-17T08:37:36.053Z,100149.91
2019-02-17T08:40:07.365Z,100154.10
2019-02-17T08:42:35.834Z,100156.27
2019-02-17T08:45:05.265Z,100149.63
2019-02-17T08:47:33.646Z,100151.27
2019-02-17T08:50:02.193Z,100143.42
2019-02-17T08:52:30.570Z,100143.77
2019-02-17T08:54:59.032Z,100138.92
2019-02-17T08:57:27.440Z,100143.12
2019-02-17T08:59:55.904Z,100146.55
2019-02-17T09:02:24.272Z,100147.70
2019-02-17T09:04:52.690Z,100138.92
2019-02-17T09:07:21.050Z,100139.63
2019-02-17T09:09:49.467Z,100137.84
2019-02-17T09:12:17.939Z,100131.92
2019-02-17T09:14:46.426Z,100132.24
2019-02-17T09:17:14.961Z,100126.86
2019-02-17T09:19:43.492Z,100132.26
2019-02-17T09:22:11.999Z,100129.56
2019-02-17T09:24:40.380Z,100112.69
2019-02-17T09:27:09.354Z,100124.52
2019-02-17T09:29:37.866Z,100126.43
2019-02-17T09:32:15.700Z,100128.39
2019-02-17T09:34:36.384Z,100132.80
2019-02-17T09:37:05.069Z,100126.62
2019-02-17T09:39:33.413Z,100132.79
2019-02-17T09:42:01.925Z,100130.65
2019-02-17T09:44:30.428Z,100123.91
2019-02-17T09:47:01.073Z,100121.63
2019-02-17T09:49:29.909Z,100124.59
2019-02-17T09:51:58.556Z,100123.19
2019-02-17T09:54:26.966Z,100124.41
2019-02-17T09:56:56.120Z,100119.98
2019-02-17T09:59:24.568Z,100130.23
2019-02-17T10:01:53.126Z,100122.70
2019-02-17T10:04:21.601Z,100120.66
2019-02-17T10:06:50.094Z,100125.09
2019-02-17T10:09:18.541Z,100124.78
2019-02-17T10:11:46.938Z,100116.93
2019-02-17T10:14:15.387Z,100122.31
2019-02-17T10:16:43.966Z,100124.06
2019-02-17T10:19:12.567Z,100123.26
2019-02-17T10:21:41.114Z,100130.06
2019-02-17T10:24:09.578Z,100128.67
2019-02-17T10:26:38.043Z,100122.55
2019-02-17T10:29:06.524Z,100117.58
2019-02-17T10:31:35.011Z,100121.92
2019-02-17T10:34:03.498Z,100123.13
2019-02-17T10:36:32.012Z,100116.30
2019-02-17T10:39:00.419Z,100124.19
2019-02-17T10:41:28.777Z,100120.20
2019-02-17T10:43:57.208Z,100121.14
2019-02-17T10:46:25.563Z,100114.48
2019-02-17T10:48:53.984Z,100109.09
2019-02-17T10:51:22.494Z,100112.63
2019-02-17T10:53:50.980Z,100111.41
2019-02-17T10:56:19.508Z,100104.87
2019-02-17T10:58:47.995Z,100099.17
2019-02-17T11:01:16.443Z,100099.13
2019-02-17T11:03:56.863Z,100102.48
2019-02-17T11:06:25.316Z,100092.56
2019-02-17T11:08:53.720Z,100096.09
2019-02-17T11:11:22.169Z,100101.85
2019-02-17T11:13:50.670Z,100091.09
2019-02-17T11:16:19.101Z,100086.98
2019-02-17T11:18:47.582Z,100087.75
2019-02-17T11:21:16.002Z,100082.80
2019-02-17T11:23:44.419Z,100077.66
2019-02-17T11:26:12.859Z,100071.60
2019-02-17T11:28:41.262Z,100067.95
2019-02-17T11:31:09.701Z,100070.46
2019-02-17T11:33:38.103Z,100068.17
2019-02-17T11:36:06.492Z,100060.84
2019-02-17T11:38:34.882Z,100057.83
2019-02-17T11:41:03.270Z,100054.41
2019-02-17T11:43:31.733Z,100043.30
2019-02-17T11:46:00.100Z,100048.04
2019-02-17T11:48:28.507Z,100044.17
2019-02-17T11:50:56.880Z,100033.24
2019-02-17T11:53:25.329Z,100031.62
2019-02-17T11:55:53.754Z,100033.82
2019-02-17T11:58:22.200Z,100027.70
2019-02-17T12:00:50.687Z,100032.64
2019-02-17T12:03:19.202Z,100026.36
2019-02-17T12:05:47.600Z,100022.90
2019-02-17T12:08:16.133Z,100022.27
2019-02-17T12:10:44.524Z,100022.69
2019-02-17T12:13:12.961Z,100019.03
2019-02-17T12:15:41.442Z,100016.13
2019-02-17T12:18:09.893Z,100013.33
2019-02-17T12:20:46.294Z,100014.34
2019-02-17T12:23:18.938Z,100009.47
2019-02-17T12:25:54.820Z,100003.05
2019-02-17T12:28:27.270Z,100000.63
2019-02-17T12:30:55.739Z,99994.25
2019-02-17T12:33:24.095Z,99992.64
2019-02-17T12:35:52.509Z,99986.54
2019-02-17T12:38:20.850Z,99989.44
2019-02-17T12:40:49.308Z,99983.23
2019-02-17T12:43:17.676Z,99978.13
2019-02-17T12:45:46.124Z,99970.25
2019-02-17T12:48:14.487Z,99970.66
2019-02-17T12:50:42.964Z,99966.88
2019-02-17T12:53:11.380Z,99964.91
2019-02-17T12:55:39.839Z,99956.23
2019-02-17T12:58:08.276Z,99951.52
2019-02-17T13:00:36.797Z,99952.95
2019-02-17T13:03:05.825Z,99944.86
2019-02-17T13:05:34.219Z,99941.25
2019-02-17T13:08:02.651Z,99932.78
2019-02-17T13:10:31.126Z,99928.44
2019-02-17T13:12:59.559Z,99928.16
2019-02-17T13:15:28.037Z,99930.38
2019-02-17T13:17:56.420Z,99926.34
2019-02-17T13:20:24.808Z,99914.98
2019-02-17T13:22:53.162Z,99924.30
2019-02-17T13:25:21.634Z,99929.92
2019-02-17T13:27:50.071Z,99919.69
2019-02-17T13:30:23.583Z,99920.66
2019-02-17T13:32:51.975Z,99920.52
2019-02-17T13:35:20.461Z,99919.68
2019-02-17T13:37:48.934Z,99915.94
2019-02-17T13:40:17.368Z,99908.16
2019-02-17T13:42:45.831Z,99911.76
2019-02-17T13:45:15.347Z,99905.97
2019-02-17T13:47:43.820Z,99904.28
2019-02-17T13:50:14.377Z,99900.27
2019-02-17T13:52:42.771Z,99898.23
2019-02-17T13:55:11.326Z,99899.48
2019-02-17T13:57:39.858Z,99897.74
2019-02-17T14:00:14.438Z,99901.22
2019-02-17T14:02:42.903Z,99893.98
2019-02-17T14:05:11.322Z,99897.67
2019-02-17T14:07:39.796Z,99893.19
2019-02-17T14:10:15.536Z,99896.80
2019-02-17T14:12:44.120Z,99887.40
2019-02-17T14:15:20.191Z,99884.54
2019-02-17T14:17:48.666Z,99887.99
2019-02-17T14:20:17.095Z,99886.89
2019-02-17T14:22:45.550Z,99881.00
2019-02-17T14:25:13.984Z,99882.17
2019-02-17T14:27:42.449Z,99883.11
2019-02-17T14:30:16.604Z,99885.22
2019-02-17T14:32:45.074Z,99882.41
2019-02-17T14:35:13.948Z,99889.23
2019-02-17T14:37:42.479Z,99883.73
2019-02-17T14:40:14.150Z,99881.53
2019-02-17T14:42:42.602Z,99879.11
2019-02-17T14:45:12.703Z,99878.42
2019-02-17T14:47:41.164Z,99879.83
2019-02-17T14:50:09.643Z,99874.58
2019-02-17T14:52:38.106Z,99874.04
2019-02-17T14:55:11.139Z,99870.05
2019-02-17T14:57:39.592Z,99874.33
2019-02-17T15:00:11.407Z,99872.34
2019-02-17T15:02:39.790Z,99878.96
2019-02-17T15:05:09.697Z,99875.39
2019-02-17T15:07:38.198Z,99875.94
2019-02-17T15:10:14.337Z,99864.53
2019-02-17T15:12:44.246Z,99866.91
2019-02-17T15:15:15.165Z,99859.33
2019-02-17T15:17:43.592Z,99858.04
2019-02-17T15:20:25.141Z,99855.66
2019-02-17T15:22:53.648Z,99863.98
2019-02-17T15:25:22.406Z,99855.39
2019-02-17T15:27:50.830Z,99851.91
2019-02-17T15:30:19.359Z,99852.30
2019-02-17T15:32:48.120Z,99851.85
2019-02-17T15:35:16.543Z,99850.69
2019-02-17T15:37:44.982Z,99848.27
2019-02-17T15:40:15.180Z,99844.01
2019-02-17T15:42:43.830Z,99838.05
2019-02-17T15:45:13.356Z,99835.70
2019-02-17T15:47:41.782Z,99835.20
2019-02-17T15:50:11.819Z,99831.94
2019-02-17T15:52:40.246Z,99828.41
2019-02-17T15:55:13.000Z,99826.91
2019-02-17T15:57:41.988Z,99821.13
2019-02-17T16:00:15.403Z,99824.16
2019-02-17T16:02:43.826Z,99821.62
2019-02-17T16:05:12.541Z,99816.75
2019-02-17T16:07:41.427Z,99821.15
2019-02-17T16:10:11.667Z,99820.97
2019-02-17T16:12:40.082Z,99815.46
2019-02-17T16:15:14.657Z,99808.29
2019-02-17T16:17:43.313Z,99814.66
2019-02-17T16:20:13.424Z,99819.45
2019-02-17T16:22:41.849Z,99815.55
2019-02-17T16:25:11.091Z,99807.70
2019-02-17T16:27:39.585Z,99814.83
2019-02-17T16:30:16.100Z,99809.37
2019-02-17T16:32:44.518Z,99808.66
2019-02-17T16:35:13.093Z,99806.41
2019-02-17T16:37:41.641Z,99798.64
2019-02-17T16:40:12.935Z,99802.75
2019-02-17T16:42:43.464Z,99795.78
2019-02-17T16:45:16.238Z,99800.72
2019-02-17T16:47:45.009Z,99799.45
2019-02-17T16:50:21.528Z,99802.50
2019-02-17T16:52:49.943Z,99799.22
2019-02-17T16:55:18.419Z,99802.56
2019-02-17T16:57:46.765Z,99802.42
2019-02-17T17:00:18.996Z,99803.45
2019-02-17T17:02:47.982Z,99807.87
2019-02-17T17:05:16.662Z,99811.53
2019-02-17T17:07:45.086Z,99810.00
2019-02-17T17:10:14.080Z,99814.16
2019-02-17T17:12:42.588Z,99822.09
2019-02-17T17:15:11.562Z,99822.47
2019-02-17T17:17:40.100Z,99823.34
2019-02-17T17:20:10.785Z,99823.61
2019-02-17T17:22:39.737Z,99825.16
2019-02-17T17:25:10.002Z,99824.55
2019-02-17T17:27:38.673Z,99834.30
2019-02-17T17:30:15.200Z,99834.94
2019-02-17T17:32:44.214Z,99842.98
2019-02-17T17:35:12.701Z,99840.63
2019-02-17T17:37:41.158Z,99838.00
2019-02-17T17:40:17.209Z,99844.23
2019-02-17T17:42:45.737Z,99847.03
2019-02-17T17:45:22.797Z,99846.56
2019-02-17T17:47:51.334Z,99843.06
2019-02-17T17:50:19.761Z,99841.93
2019-02-17T17:52:48.156Z,99849.05
2019-02-17T17:55:16.522Z,99848.93
2019-02-17T17:57:45.017Z,99853.19
2019-02-17T18:00:19.401Z,99859.78
2019-02-17T18:02:48.040Z,99864.08
2019-02-17T18:05:16.569Z,99860.87
2019-02-17T18:07:45.344Z,99862.89
2019-02-17T18:10:16.307Z,99862.69
2019-02-17T18:12:45.656Z,99867.79
2019-02-17T18:15:17.320Z,99859.89
2019-02-17T18:17:53.799Z,99867.53
2019-02-17T18:20:16.487Z,99869.58
2019-02-17T18:22:45.105Z,99871.36
2019-02-17T18:25:15.142Z,99874.18
2019-02-17T18:27:43.757Z,99874.58
2019-02-17T18:30:19.441Z,99880.54
2019-02-17T18:32:48.043Z,99876.98
2019-02-17T18:35:20.344Z,99878.41
2019-02-17T18:37:46.926Z,99879.23
2019-02-17T18:40:21.877Z,99880.75
2019-02-17T18:42:50.323Z,99887.84
2019-02-17T18:45:19.227Z,99881.53
2019-02-17T18:47:47.686Z,99883.24
2019-02-17T18:50:17.187Z,99876.86
2019-02-17T18:52:45.643Z,99885.16
2019-02-17T18:55:14.564Z,99875.39
2019-02-17T18:57:49.991Z,99876.12
2019-02-17T19:00:25.012Z,99877.70
2019-02-17T19:02:53.609Z,99880.55
2019-02-17T19:05:31.624Z,99877.30
2019-02-17T19:07:52.305Z,99879.56
2019-02-17T19:10:20.735Z,99885.86
2019-02-17T19:12:49.201Z,99876.20
2019-02-17T19:15:19.577Z,99881.27
2019-02-17T19:17:49.455Z,99876.98
2019-02-17T19:20:26.772Z,99874.66
2019-02-17T19:22:55.233Z,99877.25
2019-02-17T19:25:23.998Z,99881.35
2019-02-17T19:27:52.518Z,99877.36
2019-02-17T19:30:20.945Z,99879.11
2019-02-17T19:32:51.462Z,99878.23
2019-02-17T19:35:19.983Z,99881.94
2019-02-17T19:37:48.494Z,99885.73
2019-02-17T19:40:16.914Z,99885.95
2019-02-17T19:42:45.277Z,99881.63
2019-02-17T19:45:18.529Z,99888.14
2019-02-17T19:47:47.495Z,99881.58
2019-02-17T19:50:16.623Z,99885.84
2019-02-17T19:52:45.305Z,99890.89
2019-02-17T19:55:14.510Z,99890.48
2019-02-17T19:57:43.715Z,99886.69
2019-02-17T20:00:17.369Z,99881.52
2019-02-17T20:02:47.663Z,99894.03
2019-02-17T20:05:19.459Z,99877.91
2019-02-17T20:07:47.959Z,99884.75
2019-02-17T20:10:16.778Z,99880.77
2019-02-17T20:12:45.199Z,99885.79
2019-02-17T20:15:13.674Z,99885.78
2019-02-17T20:17:43.621Z,99886.81
2019-02-17T20:20:12.423Z,99890.87
2019-02-17T20:22:40.789Z,99895.91
2019-02-17T20:25:10.963Z,99900.94
2019-02-17T20:27:39.526Z,99899.53
2019-02-17T20:30:10.544Z,99903.11
2019-02-17T20:32:39.180Z,99907.72
2019-02-17T20:35:11.283Z,99904.56
2019-02-17T20:37:39.642Z,99909.72
2019-02-17T20:40:13.106Z,99911.74
2019-02-17T20:42:41.456Z,99911.16
2019-02-17T20:45:11.708Z,99912.68
2019-02-17T20:47:40.558Z,99912.17
2019-02-17T20:50:16.563Z,99909.86
2019-02-17T20:52:45.390Z,99912.14
2019-02-17T20:55:14.255Z,99921.66
2019-02-17T20:57:43.198Z,99913.34
2019-02-17T21:00:16.799Z,99916.22
2019-02-17T21:02:45.168Z,99911.94
2019-02-17T21:05:14.121Z,99911.19
2019-02-17T21:07:43.199Z,99908.69
2019-02-17T21:10:14.187Z,99905.70
2019-02-17T21:12:42.761Z,99906.15
2019-02-17T21:15:17.316Z,99910.15
2019-02-17T21:17:45.741Z,99910.25
2019-02-17T21:20:15.440Z,99904.41
2019-02-17T21:22:43.875Z,99907.66
2019-02-17T21:25:13.499Z,99903.11
2019-02-17T21:27:41.919Z,99903.11
2019-02-17T21:30:13.134Z,99903.37
2019-02-17T21:32:41.557Z,99906.87
2019-02-17T21:35:12.589Z,99902.43
2019-02-17T21:37:40.951Z,99905.85
2019-02-17T21:40:11.708Z,99906.64
2019-02-17T21:42:40.405Z,99895.35
2019-02-17T21:45:14.315Z,99898.77
2019-02-17T21:47:43.067Z,99903.77
2019-02-17T21:50:15.272Z,99903.09
2019-02-17T21:52:43.828Z,99910.42
2019-02-17T21:55:15.901Z,99906.64
2019-02-17T21:57:44.837Z,99907.84
2019-02-17T22:00:20.136Z,99898.41
2019-02-17T22:02:49.233Z,99907.53
2019-02-17T22:05:18.855Z,99908.61
2019-02-17T22:07:47.543Z,99909.18
2019-02-17T22:10:17.632Z,99911.96
2019-02-17T22:12:46.642Z,99904.90
2019-02-17T22:15:23.489Z,99906.34
2019-02-17T22:17:52.031Z,99912.09
2019-02-17T22:20:20.483Z,99907.14
2019-02-17T22:22:49.112Z,99909.79
2019-02-17T22:25:18.046Z,99906.61
2019-02-17T22:27:46.632Z,99901.04
2019-02-17T22:30:16.585Z,99903.97
2019-02-17T22:32:45.571Z,99901.47
2019-02-17T22:35:14.291Z,99908.22
2019-02-17T22:37:42.925Z,99905.95
2019-02-17T22:40:15.784Z,99905.88
2019-02-17T22:42:44.439Z,99906.89
2019-02-17T22:45:13.673Z,99900.45
2019-02-17T22:47:42.265Z,99901.45
2019-02-17T22:50:15.062Z,99904.90
2019-02-17T22:52:45.685Z,99904.45
2019-02-17T22:55:14.885Z,99902.27
2019-02-17T22:57:43.364Z,99903.41
2019-02-17T23:00:24.878Z,99902.73
2019-02-17T23:02:53.511Z,99909.38
2019-02-17T23:05:21.976Z,99905.27
2019-02-17T23:07:50.554Z,99896.98
2019-02-17T23:10:19.064Z,99901.50
2019-02-17T23:12:47.530Z,99904.99
2019-02-17T23:15:16.029Z,99903.42
2019-02-17T23:17:44.425Z,99906.31
2019-02-17T23:20:12.928Z,99905.52
2019-02-17T23:22:41.393Z,99907.58
2019-02-17T23:25:10.220Z,99906.48
2019-02-17T23:27:38.678Z,99915.41
2019-02-17T23:30:09.202Z,99911.28
2019-02-17T23:32:37.579Z,99910.36
2019-02-17T23:35:06.626Z,99914.88
2019-02-17T23:37:35.136Z,99903.13
2019-02-17T23:40:05.294Z,99902.59
2019-02-17T23:42:33.760Z,99902.22
2019-02-17T23:45:02.123Z,99904.19
2019-02-17T23:47:30.698Z,99907.29
2019-02-17T23:49:59.076Z,99904.77
2019-02-17T23:52:27.526Z,99902.59
2019-02-17T23:54:55.952Z,99904.15
2019-02-17T23:57:24.353Z,99906.25
2019-02-17T23:59:52.703Z,99909.75
